sensor_id;sensor_type;location;lat;lon;timestamp;P1;durP1;ratioP1;P2;durP2;ratioP2
68097;SDS011;54886;47.036;15.466;2022-08-24T00:00:05;1.55;;;1.30;;
68097;SDS011;54886;47.036;15.466;2022-08-24T00:02:33;3.42;;;1.50;;
68097;SDS011;54886;47.036;15.466;2022-08-24T00:04:59;4.93;;;1.40;;
68097;SDS011;54886;47.036;15.466;2022-08-24T00:07:25;2.58;;;1.40;;
68097;SDS011;54886;47.036;15.466;2022-08-24T00:09:50;4.07;;;1.40;;
68097;SDS011;54886;47.036;15.466;2022-08-24T00:12:15;3.25;;;1.40;;
68097;SDS011;54886;47.036;15.466;2022-08-24T00:14:41;2.92;;;1.42;;
68097;SDS011;54886;47.036;15.466;2022-08-24T00:17:07;2.53;;;1.50;;
68097;SDS011;54886;47.036;15.466;2022-08-24T00:19:33;1.65;;;1.38;;
68097;SDS011;54886;47.036;15.466;2022-08-24T00:21:58;1.45;;;1.40;;
68097;SDS011;54886;47.036;15.466;2022-08-24T00:24:24;1.50;;;1.40;;
68097;SDS011;54886;47.036;15.466;2022-08-24T00:26:50;2.25;;;1.40;;
68097;SDS011;54886;47.036;15.466;2022-08-24T00:29:17;2.90;;;1.35;;
68097;SDS011;54886;47.036;15.466;2022-08-24T00:31:43;1.65;;;1.55;;
68097;SDS011;54886;47.036;15.466;2022-08-24T00:34:08;1.50;;;1.40;;
68097;SDS011;54886;47.036;15.466;2022-08-24T00:36:34;2.75;;;1.60;;
68097;SDS011;54886;47.036;15.466;2022-08-24T00:39:00;1.55;;;1.40;;
68097;SDS011;54886;47.036;15.466;2022-08-24T00:41:27;1.40;;;1.30;;
68097;SDS011;54886;47.036;15.466;2022-08-24T00:43:54;4.43;;;1.52;;
68097;SDS011;54886;47.036;15.466;2022-08-24T00:47:24;2.80;;;1.40;;
68097;SDS011;54886;47.036;15.466;2022-08-24T00:50:05;2.10;;;1.35;;
68097;SDS011;54886;47.036;15.466;2022-08-24T00:52:20;2.93;;;1.90;;
68097;SDS011;54886;47.036;15.466;2022-08-24T00:54:56;2.40;;;1.50;;
68097;SDS011;54886;47.036;15.466;2022-08-24T00:57:31;1.73;;;1.50;;
68097;SDS011;54886;47.036;15.466;2022-08-24T01:00:06;1.65;;;1.27;;
68097;SDS011;54886;47.036;15.466;2022-08-24T01:02:35;1.70;;;1.60;;
68097;SDS011;54886;47.036;15.466;2022-08-24T01:05:06;3.72;;;1.55;;
68097;SDS011;54886;47.036;15.466;2022-08-24T01:07:33;2.75;;;1.40;;
68097;SDS011;54886;47.036;15.466;2022-08-24T01:10:01;1.67;;;1.57;;
68097;SDS011;54886;47.036;15.466;2022-08-24T01:12:36;1.60;;;1.50;;
68097;SDS011;54886;47.036;15.466;2022-08-24T01:15:04;1.58;;;1.48;;
68097;SDS011;54886;47.036;15.466;2022-08-24T01:17:31;3.67;;;1.60;;
68097;SDS011;54886;47.036;15.466;2022-08-24T01:20:16;3.50;;;1.63;;
68097;SDS011;54886;47.036;15.466;2022-08-24T01:25:25;1.77;;;1.60;;
68097;SDS011;54886;47.036;15.466;2022-08-24T01:27:54;1.65;;;1.42;;
68097;SDS011;54886;47.036;15.466;2022-08-24T01:30:23;2.50;;;1.77;;
68097;SDS011;54886;47.036;15.466;2022-08-24T01:32:54;2.22;;;1.50;;
68097;SDS011;54886;47.036;15.466;2022-08-24T01:35:21;2.05;;;1.63;;
68097;SDS011;54886;47.036;15.466;2022-08-24T01:37:47;2.70;;;1.50;;
68097;SDS011;54886;47.036;15.466;2022-08-24T01:40:15;2.70;;;1.52;;
68097;SDS011;54886;47.036;15.466;2022-08-24T01:42:48;4.32;;;1.70;;
68097;SDS011;54886;47.036;15.466;2022-08-24T01:45:16;3.92;;;1.60;;
68097;SDS011;54886;47.036;15.466;2022-08-24T01:47:43;5.18;;;1.60;;
68097;SDS011;54886;47.036;15.466;2022-08-24T01:50:09;2.60;;;1.50;;
68097;SDS011;54886;47.036;15.466;2022-08-24T01:52:35;2.50;;;1.60;;
68097;SDS011;54886;47.036;15.466;2022-08-24T01:55:07;1.80;;;1.60;;
68097;SDS011;54886;47.036;15.466;2022-08-24T01:57:34;1.90;;;1.70;;
68097;SDS011;54886;47.036;15.466;2022-08-24T01:59:59;2.15;;;1.67;;
68097;SDS011;54886;47.036;15.466;2022-08-24T02:02:27;1.58;;;1.48;;
68097;SDS011;54886;47.036;15.466;2022-08-24T02:04:54;3.53;;;1.40;;
68097;SDS011;54886;47.036;15.466;2022-08-24T02:07:20;2.80;;;1.50;;
68097;SDS011;54886;47.036;15.466;2022-08-24T02:09:45;1.65;;;1.42;;
68097;SDS011;54886;47.036;15.466;2022-08-24T02:12:11;2.15;;;1.58;;
68097;SDS011;54886;47.036;15.466;2022-08-24T02:14:37;4.20;;;1.60;;
68097;SDS011;54886;47.036;15.466;2022-08-24T02:17:03;1.52;;;1.42;;
68097;SDS011;54886;47.036;15.466;2022-08-24T02:19:31;3.55;;;1.70;;
68097;SDS011;54886;47.036;15.466;2022-08-24T02:21:57;1.95;;;1.52;;
68097;SDS011;54886;47.036;15.466;2022-08-24T02:24:24;2.67;;;1.67;;
68097;SDS011;54886;47.036;15.466;2022-08-24T02:26:51;1.50;;;1.40;;
68097;SDS011;54886;47.036;15.466;2022-08-24T02:29:17;2.92;;;1.60;;
68097;SDS011;54886;47.036;15.466;2022-08-24T02:31:43;1.50;;;1.40;;
68097;SDS011;54886;47.036;15.466;2022-08-24T02:34:08;4.25;;;1.60;;
68097;SDS011;54886;47.036;15.466;2022-08-24T02:36:34;4.70;;;1.70;;
68097;SDS011;54886;47.036;15.466;2022-08-24T02:38:59;1.60;;;1.50;;
68097;SDS011;54886;47.036;15.466;2022-08-24T02:41:25;4.13;;;1.45;;
68097;SDS011;54886;47.036;15.466;2022-08-24T02:43:53;3.63;;;1.80;;
68097;SDS011;54886;47.036;15.466;2022-08-24T02:46:20;2.85;;;1.60;;
68097;SDS011;54886;47.036;15.466;2022-08-24T02:48:48;3.30;;;1.50;;
68097;SDS011;54886;47.036;15.466;2022-08-24T02:51:32;2.33;;;1.38;;
68097;SDS011;54886;47.036;15.466;2022-08-24T02:53:59;2.30;;;1.77;;
68097;SDS011;54886;47.036;15.466;2022-08-24T02:56:26;3.08;;;1.65;;
68097;SDS011;54886;47.036;15.466;2022-08-24T02:58:58;2.30;;;1.70;;
68097;SDS011;54886;47.036;15.466;2022-08-24T03:01:25;1.73;;;1.58;;
68097;SDS011;54886;47.036;15.466;2022-08-24T03:03:52;1.85;;;1.73;;
68097;SDS011;54886;47.036;15.466;2022-08-24T03:06:18;1.95;;;1.65;;
68097;SDS011;54886;47.036;15.466;2022-08-24T03:08:44;2.90;;;1.58;;
68097;SDS011;54886;47.036;15.466;2022-08-24T03:11:10;6.25;;;1.95;;
68097;SDS011;54886;47.036;15.466;2022-08-24T03:13:38;1.95;;;1.70;;
68097;SDS011;54886;47.036;15.466;2022-08-24T03:16:04;2.75;;;1.65;;
68097;SDS011;54886;47.036;15.466;2022-08-24T03:18:30;2.75;;;1.92;;
68097;SDS011;54886;47.036;15.466;2022-08-24T03:20:57;2.08;;;1.70;;
68097;SDS011;54886;47.036;15.466;2022-08-24T03:23:23;2.83;;;1.80;;
68097;SDS011;54886;47.036;15.466;2022-08-24T03:25:49;1.80;;;1.70;;
68097;SDS011;54886;47.036;15.466;2022-08-24T03:28:16;2.50;;;1.80;;
68097;SDS011;54886;47.036;15.466;2022-08-24T03:30:43;2.28;;;1.67;;
68097;SDS011;54886;47.036;15.466;2022-08-24T03:33:09;3.83;;;1.92;;
68097;SDS011;54886;47.036;15.466;2022-08-24T03:35:35;3.42;;;1.85;;
68097;SDS011;54886;47.036;15.466;2022-08-24T03:38:01;1.70;;;1.60;;
68097;SDS011;54886;47.036;15.466;2022-08-24T03:40:26;2.22;;;1.80;;
68097;SDS011;54886;47.036;15.466;2022-08-24T03:42:52;3.15;;;1.73;;
68097;SDS011;54886;47.036;15.466;2022-08-24T03:45:18;1.95;;;1.60;;
68097;SDS011;54886;47.036;15.466;2022-08-24T03:47:44;2.05;;;1.73;;
68097;SDS011;54886;47.036;15.466;2022-08-24T03:50:10;1.70;;;1.60;;
68097;SDS011;54886;47.036;15.466;2022-08-24T03:52:36;2.80;;;1.70;;
68097;SDS011;54886;47.036;15.466;2022-08-24T03:55:03;3.15;;;1.70;;
68097;SDS011;54886;47.036;15.466;2022-08-24T03:57:30;2.97;;;1.77;;
68097;SDS011;54886;47.036;15.466;2022-08-24T03:59:55;3.95;;;1.80;;
68097;SDS011;54886;47.036;15.466;2022-08-24T04:02:21;4.80;;;1.80;;
68097;SDS011;54886;47.036;15.466;2022-08-24T04:04:46;3.60;;;1.73;;
68097;SDS011;54886;47.036;15.466;2022-08-24T04:07:12;3.08;;;1.75;;
68097;SDS011;54886;47.036;15.466;2022-08-24T04:09:37;2.00;;;1.80;;
68097;SDS011;54886;47.036;15.466;2022-08-24T04:12:03;3.33;;;1.90;;
68097;SDS011;54886;47.036;15.466;2022-08-24T04:14:28;1.70;;;1.60;;
68097;SDS011;54886;47.036;15.466;2022-08-24T04:16:54;2.33;;;1.70;;
68097;SDS011;54886;47.036;15.466;2022-08-24T04:19:19;2.42;;;1.80;;
68097;SDS011;54886;47.036;15.466;2022-08-24T04:21:45;1.95;;;1.75;;
68097;SDS011;54886;47.036;15.466;2022-08-24T04:24:11;2.35;;;1.90;;
68097;SDS011;54886;47.036;15.466;2022-08-24T04:26:37;2.17;;;1.90;;
68097;SDS011;54886;47.036;15.466;2022-08-24T04:29:05;4.47;;;1.90;;
68097;SDS011;54886;47.036;15.466;2022-08-24T04:31:36;3.58;;;1.80;;
68097;SDS011;54886;47.036;15.466;2022-08-24T04:34:02;3.38;;;1.90;;
68097;SDS011;54886;47.036;15.466;2022-08-24T04:36:28;3.47;;;1.70;;
68097;SDS011;54886;47.036;15.466;2022-08-24T04:38:53;2.53;;;1.70;;
68097;SDS011;54886;47.036;15.466;2022-08-24T04:41:19;2.15;;;1.90;;
68097;SDS011;54886;47.036;15.466;2022-08-24T04:43:44;4.13;;;1.70;;
68097;SDS011;54886;47.036;15.466;2022-08-24T04:46:12;4.10;;;1.65;;
68097;SDS011;54886;47.036;15.466;2022-08-24T04:48:39;4.80;;;1.90;;
68097;SDS011;54886;47.036;15.466;2022-08-24T04:51:06;2.80;;;2.00;;
68097;SDS011;54886;47.036;15.466;2022-08-24T04:53:34;2.88;;;1.70;;
68097;SDS011;54886;47.036;15.466;2022-08-24T04:56:01;5.07;;;2.10;;
68097;SDS011;54886;47.036;15.466;2022-08-24T04:58:28;6.05;;;2.17;;
68097;SDS011;54886;47.036;15.466;2022-08-24T05:00:54;4.70;;;1.93;;
68097;SDS011;54886;47.036;15.466;2022-08-24T05:03:20;4.65;;;1.92;;
68097;SDS011;54886;47.036;15.466;2022-08-24T05:05:48;2.13;;;1.90;;
68097;SDS011;54886;47.036;15.466;2022-08-24T05:10:42;3.03;;;2.10;;
68097;SDS011;54886;47.036;15.466;2022-08-24T05:13:09;4.07;;;2.28;;
68097;SDS011;54886;47.036;15.466;2022-08-24T05:15:35;2.15;;;1.88;;
68097;SDS011;54886;47.036;15.466;2022-08-24T05:18:05;3.47;;;2.00;;
68097;SDS011;54886;47.036;15.466;2022-08-24T05:20:31;2.83;;;2.10;;
68097;SDS011;54886;47.036;15.466;2022-08-24T05:22:59;3.75;;;2.30;;
68097;SDS011;54886;47.036;15.466;2022-08-24T05:25:25;5.07;;;2.30;;
68097;SDS011;54886;47.036;15.466;2022-08-24T05:27:51;5.45;;;2.33;;
68097;SDS011;54886;47.036;15.466;2022-08-24T05:30:16;3.58;;;2.15;;
68097;SDS011;54886;47.036;15.466;2022-08-24T05:32:42;3.65;;;2.30;;
68097;SDS011;54886;47.036;15.466;2022-08-24T05:35:07;5.25;;;2.60;;
68097;SDS011;54886;47.036;15.466;2022-08-24T05:37:34;6.05;;;2.90;;
68097;SDS011;54886;47.036;15.466;2022-08-24T05:40:04;5.60;;;2.90;;
68097;SDS011;54886;47.036;15.466;2022-08-24T05:42:32;5.93;;;3.00;;
68097;SDS011;54886;47.036;15.466;2022-08-24T05:44:59;7.38;;;3.35;;
68097;SDS011;54886;47.036;15.466;2022-08-24T05:47:24;4.07;;;2.40;;
68097;SDS011;54886;47.036;15.466;2022-08-24T05:49:50;3.20;;;2.28;;
68097;SDS011;54886;47.036;15.466;2022-08-24T05:52:19;5.30;;;2.50;;
68097;SDS011;54886;47.036;15.466;2022-08-24T05:54:53;6.93;;;2.42;;
68097;SDS011;54886;47.036;15.466;2022-08-24T05:57:21;4.97;;;2.58;;
68097;SDS011;54886;47.036;15.466;2022-08-24T05:59:48;5.15;;;2.33;;
68097;SDS011;54886;47.036;15.466;2022-08-24T06:02:14;5.25;;;2.30;;
68097;SDS011;54886;47.036;15.466;2022-08-24T06:04:40;5.53;;;2.45;;
68097;SDS011;54886;47.036;15.466;2022-08-24T06:07:06;6.38;;;2.55;;
68097;SDS011;54886;47.036;15.466;2022-08-24T06:09:35;6.15;;;2.65;;
68097;SDS011;54886;47.036;15.466;2022-08-24T06:12:02;4.72;;;2.30;;
68097;SDS011;54886;47.036;15.466;2022-08-24T06:14:28;4.55;;;2.15;;
68097;SDS011;54886;47.036;15.466;2022-08-24T06:16:53;4.10;;;2.10;;
68097;SDS011;54886;47.036;15.466;2022-08-24T06:19:19;4.60;;;2.40;;
68097;SDS011;54886;47.036;15.466;2022-08-24T06:21:47;4.40;;;2.15;;
68097;SDS011;54886;47.036;15.466;2022-08-24T06:24:15;3.42;;;2.35;;
68097;SDS011;54886;47.036;15.466;2022-08-24T06:26:41;4.25;;;2.80;;
68097;SDS011;54886;47.036;15.466;2022-08-24T06:29:26;6.38;;;2.20;;
68097;SDS011;54886;47.036;15.466;2022-08-24T06:31:52;5.80;;;2.83;;
68097;SDS011;54886;47.036;15.466;2022-08-24T06:34:18;5.70;;;2.40;;
68097;SDS011;54886;47.036;15.466;2022-08-24T06:36:43;5.10;;;2.47;;
68097;SDS011;54886;47.036;15.466;2022-08-24T06:39:10;4.20;;;2.50;;
68097;SDS011;54886;47.036;15.466;2022-08-24T06:41:36;5.63;;;2.50;;
68097;SDS011;54886;47.036;15.466;2022-08-24T06:44:02;7.13;;;2.20;;
68097;SDS011;54886;47.036;15.466;2022-08-24T06:46:29;4.18;;;2.47;;
68097;SDS011;54886;47.036;15.466;2022-08-24T06:48:54;7.22;;;2.60;;
68097;SDS011;54886;47.036;15.466;2022-08-24T06:51:20;4.90;;;2.55;;
68097;SDS011;54886;47.036;15.466;2022-08-24T06:53:47;4.35;;;2.40;;
68097;SDS011;54886;47.036;15.466;2022-08-24T06:56:13;3.95;;;2.50;;
68097;SDS011;54886;47.036;15.466;2022-08-24T06:58:40;5.05;;;2.55;;
68097;SDS011;54886;47.036;15.466;2022-08-24T07:01:12;7.18;;;2.58;;
68097;SDS011;54886;47.036;15.466;2022-08-24T07:03:40;7.57;;;2.40;;
68097;SDS011;54886;47.036;15.466;2022-08-24T07:06:06;6.57;;;2.60;;
68097;SDS011;54886;47.036;15.466;2022-08-24T07:08:32;6.30;;;2.60;;
68097;SDS011;54886;47.036;15.466;2022-08-24T07:10:58;4.65;;;2.40;;
68097;SDS011;54886;47.036;15.466;2022-08-24T07:13:23;4.97;;;2.42;;
68097;SDS011;54886;47.036;15.466;2022-08-24T07:15:49;5.97;;;2.35;;
68097;SDS011;54886;47.036;15.466;2022-08-24T07:18:17;4.50;;;2.30;;
68097;SDS011;54886;47.036;15.466;2022-08-24T07:20:44;5.68;;;2.50;;
68097;SDS011;54886;47.036;15.466;2022-08-24T07:23:10;5.63;;;2.50;;
68097;SDS011;54886;47.036;15.466;2022-08-24T07:25:38;6.00;;;2.40;;
68097;SDS011;54886;47.036;15.466;2022-08-24T07:28:05;5.55;;;2.40;;
68097;SDS011;54886;47.036;15.466;2022-08-24T07:30:30;7.32;;;2.45;;
68097;SDS011;54886;47.036;15.466;2022-08-24T07:32:56;7.03;;;2.80;;
68097;SDS011;54886;47.036;15.466;2022-08-24T07:35:23;4.55;;;2.55;;
68097;SDS011;54886;47.036;15.466;2022-08-24T07:37:50;5.50;;;2.30;;
68097;SDS011;54886;47.036;15.466;2022-08-24T07:40:16;4.22;;;2.20;;
68097;SDS011;54886;47.036;15.466;2022-08-24T07:42:46;6.05;;;2.50;;
68097;SDS011;54886;47.036;15.466;2022-08-24T07:45:12;4.55;;;2.13;;
68097;SDS011;54886;47.036;15.466;2022-08-24T07:47:38;8.05;;;2.40;;
68097;SDS011;54886;47.036;15.466;2022-08-24T07:50:04;5.20;;;2.05;;
68097;SDS011;54886;47.036;15.466;2022-08-24T07:52:30;5.70;;;2.33;;
68097;SDS011;54886;47.036;15.466;2022-08-24T07:54:56;5.63;;;2.28;;
68097;SDS011;54886;47.036;15.466;2022-08-24T07:57:21;5.55;;;2.10;;
68097;SDS011;54886;47.036;15.466;2022-08-24T07:59:47;4.97;;;2.17;;
68097;SDS011;54886;47.036;15.466;2022-08-24T08:02:12;5.13;;;2.40;;
68097;SDS011;54886;47.036;15.466;2022-08-24T08:04:39;5.40;;;2.28;;
68097;SDS011;54886;47.036;15.466;2022-08-24T08:07:05;4.40;;;2.25;;
68097;SDS011;54886;47.036;15.466;2022-08-24T08:09:31;5.05;;;2.30;;
68097;SDS011;54886;47.036;15.466;2022-08-24T08:11:57;4.22;;;2.17;;
68097;SDS011;54886;47.036;15.466;2022-08-24T08:14:23;3.88;;;2.03;;
68097;SDS011;54886;47.036;15.466;2022-08-24T08:16:48;3.42;;;2.10;;
68097;SDS011;54886;47.036;15.466;2022-08-24T08:19:14;6.93;;;2.20;;
68097;SDS011;54886;47.036;15.466;2022-08-24T08:21:44;6.07;;;2.30;;
68097;SDS011;54886;47.036;15.466;2022-08-24T08:24:29;3.65;;;1.80;;
68097;SDS011;54886;47.036;15.466;2022-08-24T08:26:54;3.78;;;1.80;;
68097;SDS011;54886;47.036;15.466;2022-08-24T08:29:21;3.73;;;2.00;;
68097;SDS011;54886;47.036;15.466;2022-08-24T08:31:48;2.97;;;1.73;;
68097;SDS011;54886;47.036;15.466;2022-08-24T08:34:13;5.72;;;2.10;;
68097;SDS011;54886;47.036;15.466;2022-08-24T08:36:39;4.88;;;1.88;;
68097;SDS011;54886;47.036;15.466;2022-08-24T08:39:06;5.00;;;2.00;;
68097;SDS011;54886;47.036;15.466;2022-08-24T08:52:24;2.78;;;1.90;;
68097;SDS011;54886;47.036;15.466;2022-08-24T08:57:49;3.75;;;1.70;;
68097;SDS011;54886;47.036;15.466;2022-08-24T09:00:20;4.13;;;1.75;;
68097;SDS011;54886;47.036;15.466;2022-08-24T09:13:47;3.33;;;1.60;;
68097;SDS011;54886;47.036;15.466;2022-08-24T09:16:27;3.13;;;1.55;;
68097;SDS011;54886;47.036;15.466;2022-08-24T09:19:09;6.88;;;1.50;;
68097;SDS011;54886;47.036;15.466;2022-08-24T09:24:46;3.50;;;1.77;;
68097;SDS011;54886;47.036;15.466;2022-08-24T09:30:23;2.55;;;1.52;;
68097;SDS011;54886;47.036;15.466;2022-08-24T09:33:07;3.72;;;1.67;;
68097;SDS011;54886;47.036;15.466;2022-08-24T09:58:07;1.70;;;1.60;;
68097;SDS011;54886;47.036;15.466;2022-08-24T10:00:44;3.22;;;1.80;;
68097;SDS011;54886;47.036;15.466;2022-08-24T10:08:27;2.40;;;1.70;;
68097;SDS011;54886;47.036;15.466;2022-08-24T10:16:35;2.40;;;1.83;;
68097;SDS011;54886;47.036;15.466;2022-08-24T10:24:49;1.80;;;1.70;;
68097;SDS011;54886;47.036;15.466;2022-08-24T10:33:10;2.00;;;1.67;;
68097;SDS011;54886;47.036;15.466;2022-08-24T10:45:15;2.85;;;1.80;;
68097;SDS011;54886;47.036;15.466;2022-08-24T10:48:22;4.90;;;2.20;;
68097;SDS011;54886;47.036;15.466;2022-08-24T10:50:58;2.78;;;2.05;;
68097;SDS011;54886;47.036;15.466;2022-08-24T10:53:30;3.80;;;2.10;;
68097;SDS011;54886;47.036;15.466;2022-08-24T10:58:44;3.55;;;2.00;;
68097;SDS011;54886;47.036;15.466;2022-08-24T11:01:30;3.83;;;1.80;;
68097;SDS011;54886;47.036;15.466;2022-08-24T11:03:59;3.10;;;1.85;;
68097;SDS011;54886;47.036;15.466;2022-08-24T11:06:38;6.78;;;2.10;;
68097;SDS011;54886;47.036;15.466;2022-08-24T11:09:15;2.78;;;1.80;;
68097;SDS011;54886;47.036;15.466;2022-08-24T11:11:43;2.55;;;1.98;;
68097;SDS011;54886;47.036;15.466;2022-08-24T11:14:29;3.22;;;2.10;;
68097;SDS011;54886;47.036;15.466;2022-08-24T11:17:15;3.63;;;2.08;;
68097;SDS011;54886;47.036;15.466;2022-08-24T11:19:43;2.22;;;1.88;;
68097;SDS011;54886;47.036;15.466;2022-08-24T11:30:51;4.03;;;2.10;;
68097;SDS011;54886;47.036;15.466;2022-08-24T11:33:28;3.05;;;1.98;;
68097;SDS011;54886;47.036;15.466;2022-08-24T11:35:58;2.15;;;1.85;;
68097;SDS011;54886;47.036;15.466;2022-08-24T11:41:08;3.40;;;2.15;;
68097;SDS011;54886;47.036;15.466;2022-08-24T11:52:42;2.70;;;2.10;;
68097;SDS011;54886;47.036;15.466;2022-08-24T11:55:29;2.10;;;1.90;;
68097;SDS011;54886;47.036;15.466;2022-08-24T11:58:05;4.40;;;2.00;;
68097;SDS011;54886;47.036;15.466;2022-08-24T12:00:39;3.25;;;2.10;;
68097;SDS011;54886;47.036;15.466;2022-08-24T12:17:15;4.45;;;2.10;;
68097;SDS011;54886;47.036;15.466;2022-08-24T12:22:57;2.40;;;1.88;;
68097;SDS011;54886;47.036;15.466;2022-08-24T12:25:29;3.05;;;2.20;;
68097;SDS011;54886;47.036;15.466;2022-08-24T12:28:18;2.67;;;2.03;;
68097;SDS011;54886;47.036;15.466;2022-08-24T12:30:49;2.72;;;1.88;;
68097;SDS011;54886;47.036;15.466;2022-08-24T12:33:15;2.00;;;1.80;;
68097;SDS011;54886;47.036;15.466;2022-08-24T12:35:45;3.25;;;2.10;;
68097;SDS011;54886;47.036;15.466;2022-08-24T12:41:19;3.78;;;2.10;;
68097;SDS011;54886;47.036;15.466;2022-08-24T12:44:07;3.08;;;2.00;;
68097;SDS011;54886;47.036;15.466;2022-08-24T12:46:36;2.33;;;2.00;;
68097;SDS011;54886;47.036;15.466;2022-08-24T12:49:37;2.85;;;2.30;;
68097;SDS011;54886;47.036;15.466;2022-08-24T12:58:04;2.53;;;2.05;;
68097;SDS011;54886;47.036;15.466;2022-08-24T13:00:44;2.30;;;1.92;;
68097;SDS011;54886;47.036;15.466;2022-08-24T13:03:33;2.90;;;2.08;;
68097;SDS011;54886;47.036;15.466;2022-08-24T13:06:03;2.85;;;2.00;;
68097;SDS011;54886;47.036;15.466;2022-08-24T13:08:50;2.38;;;2.10;;
68097;SDS011;54886;47.036;15.466;2022-08-24T13:19:35;2.50;;;2.30;;
68097;SDS011;54886;47.036;15.466;2022-08-24T13:30:26;2.50;;;2.20;;
68097;SDS011;54886;47.036;15.466;2022-08-24T13:33:00;4.13;;;2.20;;
68097;SDS011;54886;47.036;15.466;2022-08-24T13:41:10;3.53;;;2.25;;
68097;SDS011;54886;47.036;15.466;2022-08-24T13:51:44;4.70;;;2.40;;
68097;SDS011;54886;47.036;15.466;2022-08-24T13:54:27;3.35;;;2.30;;
68097;SDS011;54886;47.036;15.466;2022-08-24T13:59:57;3.55;;;2.60;;
68097;SDS011;54886;47.036;15.466;2022-08-24T14:05:44;4.38;;;2.80;;
68097;SDS011;54886;47.036;15.466;2022-08-24T14:08:34;4.65;;;2.80;;
68097;SDS011;54886;47.036;15.466;2022-08-24T14:14:13;2.85;;;2.50;;
68097;SDS011;54886;47.036;15.466;2022-08-24T14:25:48;5.13;;;3.10;;
68097;SDS011;54886;47.036;15.466;2022-08-24T14:33:56;4.20;;;2.95;;
68097;SDS011;54886;47.036;15.466;2022-08-24T14:36:29;4.90;;;2.88;;
68097;SDS011;54886;47.036;15.466;2022-08-24T14:42:34;4.43;;;3.00;;
68097;SDS011;54886;47.036;15.466;2022-08-24T14:45:06;5.35;;;2.90;;
68097;SDS011;54886;47.036;15.466;2022-08-24T14:56:12;4.28;;;2.78;;
68097;SDS011;54886;47.036;15.466;2022-08-24T14:58:59;4.68;;;3.08;;
68097;SDS011;54886;47.036;15.466;2022-08-24T15:06:52;5.63;;;3.28;;
68097;SDS011;54886;47.036;15.466;2022-08-24T15:11:50;6.80;;;3.20;;
68097;SDS011;54886;47.036;15.466;2022-08-24T15:14:21;4.95;;;3.40;;
68097;SDS011;54886;47.036;15.466;2022-08-24T15:17:08;4.88;;;3.20;;
68097;SDS011;54886;47.036;15.466;2022-08-24T15:22:35;8.43;;;3.67;;
68097;SDS011;54886;47.036;15.466;2022-08-24T15:25:10;5.40;;;3.40;;
68097;SDS011;54886;47.036;15.466;2022-08-24T15:27:55;7.93;;;3.35;;
68097;SDS011;54886;47.036;15.466;2022-08-24T15:30:24;6.10;;;3.30;;
68097;SDS011;54886;47.036;15.466;2022-08-24T15:33:00;6.10;;;3.40;;
68097;SDS011;54886;47.036;15.466;2022-08-24T15:35:31;8.50;;;3.50;;
68097;SDS011;54886;47.036;15.466;2022-08-24T15:38:19;11.45;;;3.78;;
68097;SDS011;54886;47.036;15.466;2022-08-24T15:40:50;6.57;;;3.47;;
68097;SDS011;54886;47.036;15.466;2022-08-24T15:43:26;6.85;;;4.00;;
68097;SDS011;54886;47.036;15.466;2022-08-24T15:45:52;8.15;;;3.78;;
68097;SDS011;54886;47.036;15.466;2022-08-24T15:48:19;8.20;;;3.92;;
68097;SDS011;54886;47.036;15.466;2022-08-24T15:50:48;8.68;;;3.92;;
68097;SDS011;54886;47.036;15.466;2022-08-24T15:59:04;5.15;;;3.45;;
68097;SDS011;54886;47.036;15.466;2022-08-24T16:01:32;6.60;;;3.60;;
68097;SDS011;54886;47.036;15.466;2022-08-24T16:07:03;6.30;;;3.70;;
68097;SDS011;54886;47.036;15.466;2022-08-24T16:11:58;6.82;;;3.42;;
68097;SDS011;54886;47.036;15.466;2022-08-24T16:14:45;4.90;;;3.30;;
68097;SDS011;54886;47.036;15.466;2022-08-24T16:17:21;7.47;;;3.42;;
68097;SDS011;54886;47.036;15.466;2022-08-24T16:19:58;5.30;;;3.40;;
68097;SDS011;54886;47.036;15.466;2022-08-24T16:30:45;4.60;;;3.22;;
68097;SDS011;54886;47.036;15.466;2022-08-24T16:35:55;7.85;;;3.40;;
68097;SDS011;54886;47.036;15.466;2022-08-24T16:38:22;5.10;;;3.60;;
68097;SDS011;54886;47.036;15.466;2022-08-24T16:40:48;6.25;;;3.47;;
68097;SDS011;54886;47.036;15.466;2022-08-24T16:43:14;7.55;;;3.70;;
68097;SDS011;54886;47.036;15.466;2022-08-24T16:45:39;6.25;;;3.85;;
68097;SDS011;54886;47.036;15.466;2022-08-24T16:48:05;6.28;;;3.42;;
68097;SDS011;54886;47.036;15.466;2022-08-24T16:50:31;5.95;;;3.50;;
68097;SDS011;54886;47.036;15.466;2022-08-24T16:52:56;5.72;;;3.65;;
68097;SDS011;54886;47.036;15.466;2022-08-24T16:55:22;7.15;;;3.42;;
68097;SDS011;54886;47.036;15.466;2022-08-24T16:57:48;5.15;;;3.50;;
68097;SDS011;54886;47.036;15.466;2022-08-24T17:00:17;4.72;;;3.20;;
68097;SDS011;54886;47.036;15.466;2022-08-24T17:02:43;6.80;;;3.45;;
68097;SDS011;54886;47.036;15.466;2022-08-24T17:05:10;7.30;;;3.42;;
68097;SDS011;54886;47.036;15.466;2022-08-24T17:07:36;4.88;;;3.40;;
68097;SDS011;54886;47.036;15.466;2022-08-24T17:10:02;6.28;;;3.60;;
68097;SDS011;54886;47.036;15.466;2022-08-24T17:12:29;6.05;;;3.85;;
68097;SDS011;54886;47.036;15.466;2022-08-24T17:14:55;6.97;;;3.80;;
68097;SDS011;54886;47.036;15.466;2022-08-24T17:19:49;9.38;;;3.95;;
68097;SDS011;54886;47.036;15.466;2022-08-24T17:22:16;6.90;;;3.83;;
68097;SDS011;54886;47.036;15.466;2022-08-24T17:24:42;7.13;;;3.97;;
68097;SDS011;54886;47.036;15.466;2022-08-24T17:27:08;8.65;;;3.70;;
68097;SDS011;54886;47.036;15.466;2022-08-24T17:29:34;7.43;;;4.30;;
68097;SDS011;54886;47.036;15.466;2022-08-24T17:31:59;8.90;;;4.15;;
68097;SDS011;54886;47.036;15.466;2022-08-24T17:34:25;6.13;;;3.70;;
68097;SDS011;54886;47.036;15.466;2022-08-24T17:36:52;6.35;;;3.90;;
68097;SDS011;54886;47.036;15.466;2022-08-24T17:39:20;7.97;;;4.30;;
68097;SDS011;54886;47.036;15.466;2022-08-24T17:41:48;8.23;;;4.65;;
68097;SDS011;54886;47.036;15.466;2022-08-24T17:44:20;7.85;;;4.40;;
68097;SDS011;54886;47.036;15.466;2022-08-24T17:46:49;7.63;;;4.53;;
68097;SDS011;54886;47.036;15.466;2022-08-24T17:49:15;8.07;;;4.22;;
68097;SDS011;54886;47.036;15.466;2022-08-24T17:51:42;8.18;;;4.50;;
68097;SDS011;54886;47.036;15.466;2022-08-24T17:54:08;7.47;;;3.97;;
68097;SDS011;54886;47.036;15.466;2022-08-24T17:56:33;9.18;;;4.40;;
68097;SDS011;54886;47.036;15.466;2022-08-24T17:59:05;7.15;;;4.32;;
68097;SDS011;54886;47.036;15.466;2022-08-24T18:01:44;7.68;;;4.47;;
68097;SDS011;54886;47.036;15.466;2022-08-24T18:04:15;8.18;;;4.22;;
68097;SDS011;54886;47.036;15.466;2022-08-24T18:06:41;7.18;;;4.10;;
68097;SDS011;54886;47.036;15.466;2022-08-24T18:09:07;7.75;;;4.05;;
68097;SDS011;54886;47.036;15.466;2022-08-24T18:11:40;8.45;;;4.20;;
68097;SDS011;54886;47.036;15.466;2022-08-24T18:14:06;11.80;;;4.28;;
68097;SDS011;54886;47.036;15.466;2022-08-24T18:16:31;8.15;;;4.00;;
68097;SDS011;54886;47.036;15.466;2022-08-24T18:18:56;6.97;;;4.00;;
68097;SDS011;54886;47.036;15.466;2022-08-24T18:21:22;6.35;;;4.18;;
68097;SDS011;54886;47.036;15.466;2022-08-24T18:23:48;6.85;;;4.30;;
68097;SDS011;54886;47.036;15.466;2022-08-24T18:26:18;8.00;;;4.57;;
68097;SDS011;54886;47.036;15.466;2022-08-24T18:28:46;8.18;;;4.47;;
68097;SDS011;54886;47.036;15.466;2022-08-24T18:31:12;6.85;;;4.15;;
68097;SDS011;54886;47.036;15.466;2022-08-24T18:33:38;7.05;;;4.10;;
68097;SDS011;54886;47.036;15.466;2022-08-24T18:36:03;7.28;;;4.43;;
68097;SDS011;54886;47.036;15.466;2022-08-24T18:38:29;7.03;;;4.25;;
68097;SDS011;54886;47.036;15.466;2022-08-24T18:40:54;7.03;;;4.28;;
68097;SDS011;54886;47.036;15.466;2022-08-24T18:43:22;6.30;;;4.18;;
68097;SDS011;54886;47.036;15.466;2022-08-24T18:45:48;9.10;;;4.30;;